sensor_id;sensor_type;location;lat;lon;timestamp;pressure;altitude;pressure_sealevel;temperature;humidity
84043;BME280;74129;52.540;13.416;2024-03-02T00:00:23;99921.86;;;10.34;67.16
84043;BME280;74129;52.540;13.416;2024-03-02T00:03:11;99923.21;;;10.37;67.13
84043;BME280;74129;52.540;13.416;2024-03-02T00:05:40;99920.38;;;10.37;67.00
84043;BME280;74129;52.540;13.416;2024-03-02T00:08:07;99921.48;;;10.35;67.16
84043;BME280;74129;52.540;13.416;2024-03-02T00:10:40;99919.08;;;10.34;67.09
84043;BME280;74129;52.540;13.416;2024-03-02T00:13:07;99920.52;;;10.32;66.99
84043;BME280;74129;52.540;13.416;2024-03-02T00:15:48;99914.71;;;10.31;67.15
84043;BME280;74129;52.540;13.416;2024-03-02T00:18:20;99918.70;;;10.31;66.95
84043;BME280;74129;52.540;13.416;2024-03-02T00:20:47;99913.35;;;10.29;67.04
84043;BME280;74129;52.540;13.416;2024-03-02T00:23:18;99910.34;;;10.24;67.38
84043;BME280;74129;52.540;13.416;2024-03-02T00:25:48;99904.37;;;10.22;67.28
84043;BME280;74129;52.540;13.416;2024-03-02T00:30:58;99908.73;;;10.18;67.71
84043;BME280;74129;52.540;13.416;2024-03-02T00:33:27;99901.95;;;10.18;67.56
84043;BME280;74129;52.540;13.416;2024-03-02T00:35:54;99899.38;;;10.20;67.63
84043;BME280;74129;52.540;13.416;2024-03-02T00:38:22;99900.23;;;10.21;67.67
84043;BME280;74129;52.540;13.416;2024-03-02T00:40:49;99898.73;;;10.22;67.75
84043;BME280;74129;52.540;13.416;2024-03-02T00:43:45;99897.34;;;10.26;67.68
84043;BME280;74129;52.540;13.416;2024-03-02T00:46:16;99901.15;;;10.30;67.74
84043;BME280;74129;52.540;13.416;2024-03-02T00:48:48;99900.78;;;10.31;67.76
84043;BME280;74129;52.540;13.416;2024-03-02T00:51:17;99899.19;;;10.34;67.68
84043;BME280;74129;52.540;13.416;2024-03-02T00:53:44;99894.89;;;10.34;67.82
84043;BME280;74129;52.540;13.416;2024-03-02T00:56:11;99896.49;;;10.37;67.79
84043;BME280;74129;52.540;13.416;2024-03-02T00:58:40;99897.23;;;10.41;67.69
84043;BME280;74129;52.540;13.416;2024-03-02T01:01:07;99897.55;;;10.44;67.58
84043;BME280;74129;52.540;13.416;2024-03-02T01:03:34;99898.57;;;10.47;67.55
84043;BME280;74129;52.540;13.416;2024-03-02T01:06:00;99897.93;;;10.48;67.57
84043;BME280;74129;52.540;13.416;2024-03-02T01:08:26;99896.31;;;10.49;67.70
84043;BME280;74129;52.540;13.416;2024-03-02T01:10:53;99895.14;;;10.51;67.56
84043;BME280;74129;52.540;13.416;2024-03-02T01:13:19;99895.94;;;10.53;67.41
84043;BME280;74129;52.540;13.416;2024-03-02T01:15:46;99893.98;;;10.56;67.47
84043;BME280;74129;52.540;13.416;2024-03-02T01:18:12;99889.84;;;10.57;67.55
84043;BME280;74129;52.540;13.416;2024-03-02T01:20:38;99886.52;;;10.58;67.63
84043;BME280;74129;52.540;13.416;2024-03-02T01:23:05;99883.29;;;10.57;67.78
84043;BME280;74129;52.540;13.416;2024-03-02T01:25:31;99885.02;;;10.58;67.80
84043;BME280;74129;52.540;13.416;2024-03-02T01:27:57;99889.23;;;10.62;67.97
84043;BME280;74129;52.540;13.416;2024-03-02T01:30:24;99889.45;;;10.67;67.78
84043;BME280;74129;52.540;13.416;2024-03-02T01:32:50;99887.72;;;10.69;67.73
84043;BME280;74129;52.540;13.416;2024-03-02T01:35:16;99880.66;;;10.71;68.00
84043;BME280;74129;52.540;13.416;2024-03-02T01:37:43;99874.12;;;10.71;67.78
84043;BME280;74129;52.540;13.416;2024-03-02T01:40:10;99879.73;;;10.73;67.90
84043;BME280;74129;52.540;13.416;2024-03-02T01:42:37;99879.05;;;10.72;67.93
84043;BME280;74129;52.540;13.416;2024-03-02T01:45:05;99881.64;;;10.73;67.85
84043;BME280;74129;52.540;13.416;2024-03-02T01:47:32;99881.63;;;10.74;67.92
84043;BME280;74129;52.540;13.416;2024-03-02T01:49:59;99878.52;;;10.74;68.05
84043;BME280;74129;52.540;13.416;2024-03-02T01:52:26;99872.20;;;10.74;68.14
84043;BME280;74129;52.540;13.416;2024-03-02T01:54:53;99862.92;;;10.72;68.26
84043;BME280;74129;52.540;13.416;2024-03-02T01:57:19;99861.14;;;10.72;68.42
84043;BME280;74129;52.540;13.416;2024-03-02T01:59:46;99858.13;;;10.73;68.54
84043;BME280;74129;52.540;13.416;2024-03-02T02:02:17;99854.95;;;10.75;68.41
84043;BME280;74129;52.540;13.416;2024-03-02T02:04:43;99851.60;;;10.76;68.39
84043;BME280;74129;52.540;13.416;2024-03-02T02:07:10;99846.45;;;10.78;68.46
84043;BME280;74129;52.540;13.416;2024-03-02T02:09:36;99849.39;;;10.79;68.59
84043;BME280;74129;52.540;13.416;2024-03-02T02:12:03;99842.40;;;10.80;68.48
84043;BME280;74129;52.540;13.416;2024-03-02T02:14:32;99839.50;;;10.81;68.51
84043;BME280;74129;52.540;13.416;2024-03-02T02:16:59;99838.36;;;10.79;68.74
84043;BME280;74129;52.540;13.416;2024-03-02T02:19:25;99838.27;;;10.81;68.73
84043;BME280;74129;52.540;13.416;2024-03-02T02:21:52;99834.11;;;10.81;68.76
84043;BME280;74129;52.540;13.416;2024-03-02T02:24:18;99836.90;;;10.81;68.90
84043;BME280;74129;52.540;13.416;2024-03-02T02:26:45;99836.64;;;10.79;68.85
84043;BME280;74129;52.540;13.416;2024-03-02T02:29:11;99832.98;;;10.78;68.85
84043;BME280;74129;52.540;13.416;2024-03-02T02:31:38;99831.33;;;10.78;69.12
84043;BME280;74129;52.540;13.416;2024-03-02T02:34:05;99826.59;;;10.77;68.89
84043;BME280;74129;52.540;13.416;2024-03-02T02:36:39;99828.86;;;10.77;68.96
84043;BME280;74129;52.540;13.416;2024-03-02T02:39:10;99832.14;;;10.77;68.97
84043;BME280;74129;52.540;13.416;2024-03-02T02:41:38;99832.08;;;10.77;69.19
84043;BME280;74129;52.540;13.416;2024-03-02T02:44:05;99832.89;;;10.75;69.13
84043;BME280;74129;52.540;13.416;2024-03-02T02:46:32;99834.61;;;10.73;69.27
84043;BME280;74129;52.540;13.416;2024-03-02T02:48:58;99839.95;;;10.72;69.57
84043;BME280;74129;52.540;13.416;2024-03-02T02:51:25;99842.91;;;10.71;69.50
84043;BME280;74129;52.540;13.416;2024-03-02T02:53:51;99841.35;;;10.71;69.68
84043;BME280;74129;52.540;13.416;2024-03-02T02:56:18;99838.50;;;10.71;69.85
84043;BME280;74129;52.540;13.416;2024-03-02T02:58:44;99834.58;;;10.69;69.77
84043;BME280;74129;52.540;13.416;2024-03-02T03:01:10;99846.23;;;10.71;69.79
84043;BME280;74129;52.540;13.416;2024-03-02T03:03:37;99842.64;;;10.70;70.11
84043;BME280;74129;52.540;13.416;2024-03-02T03:06:05;99848.13;;;10.70;70.16
84043;BME280;74129;52.540;13.416;2024-03-02T03:08:33;99845.44;;;10.70;70.31
84043;BME280;74129;52.540;13.416;2024-03-02T03:11:00;99850.92;;;10.72;70.27
84043;BME280;74129;52.540;13.416;2024-03-02T03:13:27;99851.08;;;10.72;70.19
84043;BME280;74129;52.540;13.416;2024-03-02T03:15:53;99849.58;;;10.70;70.29
84043;BME280;74129;52.540;13.416;2024-03-02T03:18:20;99845.22;;;10.70;70.26
84043;BME280;74129;52.540;13.416;2024-03-02T03:20:46;99844.21;;;10.70;70.33
84043;BME280;74129;52.540;13.416;2024-03-02T03:23:14;99843.30;;;10.69;70.45
84043;BME280;74129;52.540;13.416;2024-03-02T03:25:42;99843.34;;;10.69;70.55
84043;BME280;74129;52.540;13.416;2024-03-02T03:28:08;99845.82;;;10.69;70.57
84043;BME280;74129;52.540;13.416;2024-03-02T03:30:39;99848.58;;;10.68;70.57
84043;BME280;74129;52.540;13.416;2024-03-02T03:33:06;99844.15;;;10.67;70.75
84043;BME280;74129;52.540;13.416;2024-03-02T03:35:32;99843.14;;;10.66;70.81
84043;BME280;74129;52.540;13.416;2024-03-02T03:37:59;99839.16;;;10.65;70.81
84043;BME280;74129;52.540;13.416;2024-03-02T03:40:25;99839.02;;;10.64;70.73
84043;BME280;74129;52.540;13.416;2024-03-02T03:42:52;99841.15;;;10.62;71.04
84043;BME280;74129;52.540;13.416;2024-03-02T03:45:19;99842.19;;;10.61;70.84
84043;BME280;74129;52.540;13.416;2024-03-02T03:47:46;99842.67;;;10.60;71.00
84043;BME280;74129;52.540;13.416;2024-03-02T03:50:13;99843.77;;;10.61;70.90
84043;BME280;74129;52.540;13.416;2024-03-02T03:52:39;99842.99;;;10.62;71.15
84043;BME280;74129;52.540;13.416;2024-03-02T03:55:06;99841.37;;;10.64;71.12
84043;BME280;74129;52.540;13.416;2024-03-02T03:57:33;99844.17;;;10.64;71.16
84043;BME280;74129;52.540;13.416;2024-03-02T03:59:59;99841.63;;;10.67;71.35
84043;BME280;74129;52.540;13.416;2024-03-02T04:02:26;99842.34;;;10.68;71.32
84043;BME280;74129;52.540;13.416;2024-03-02T04:04:53;99846.09;;;10.69;71.19
84043;BME280;74129;52.540;13.416;2024-03-02T04:07:19;99846.41;;;10.69;71.17
84043;BME280;74129;52.540;13.416;2024-03-02T04:09:46;99846.41;;;10.67;71.23
84043;BME280;74129;52.540;13.416;2024-03-02T04:12:12;99850.19;;;10.64;71.42
84043;BME280;74129;52.540;13.416;2024-03-02T04:14:39;99848.73;;;10.63;71.45
84043;BME280;74129;52.540;13.416;2024-03-02T04:17:08;99853.48;;;10.63;71.57
84043;BME280;74129;52.540;13.416;2024-03-02T04:19:36;99853.76;;;10.60;71.49
84043;BME280;74129;52.540;13.416;2024-03-02T04:22:03;99853.77;;;10.58;71.64
84043;BME280;74129;52.540;13.416;2024-03-02T04:24:29;99853.01;;;10.59;71.55
84043;BME280;74129;52.540;13.416;2024-03-02T04:26:56;99855.41;;;10.60;71.59
84043;BME280;74129;52.540;13.416;2024-03-02T04:29:23;99858.10;;;10.60;71.75
84043;BME280;74129;52.540;13.416;2024-03-02T04:31:49;99856.39;;;10.59;71.69
84043;BME280;74129;52.540;13.416;2024-03-02T04:34:15;99852.84;;;10.58;71.80
84043;BME280;74129;52.540;13.416;2024-03-02T04:36:42;99855.00;;;10.56;71.86
84043;BME280;74129;52.540;13.416;2024-03-02T04:39:08;99856.73;;;10.53;72.06
84043;BME280;74129;52.540;13.416;2024-03-02T04:41:36;99855.83;;;10.51;71.91
84043;BME280;74129;52.540;13.416;2024-03-02T04:44:03;99856.63;;;10.53;72.24
84043;BME280;74129;52.540;13.416;2024-03-02T04:46:31;99860.10;;;10.58;71.92
84043;BME280;74129;52.540;13.416;2024-03-02T04:48:57;99863.97;;;10.60;71.74
84043;BME280;74129;52.540;13.416;2024-03-02T04:51:24;99866.45;;;10.60;71.87
84043;BME280;74129;52.540;13.416;2024-03-02T04:53:50;99867.96;;;10.61;71.79
84043;BME280;74129;52.540;13.416;2024-03-02T04:56:16;99868.96;;;10.63;71.90
84043;BME280;74129;52.540;13.416;2024-03-02T04:59:06;99875.58;;;10.64;71.97
84043;BME280;74129;52.540;13.416;2024-03-02T05:01:33;99875.89;;;10.67;71.92
84043;BME280;74129;52.540;13.416;2024-03-02T05:04:00;99879.60;;;10.67;71.89
84043;BME280;74129;52.540;13.416;2024-03-02T05:06:26;99879.77;;;10.68;71.91
84043;BME280;74129;52.540;13.416;2024-03-02T05:08:53;99881.91;;;10.70;71.98
84043;BME280;74129;52.540;13.416;2024-03-02T05:11:19;99885.46;;;10.69;72.03
84043;BME280;74129;52.540;13.416;2024-03-02T05:13:57;99888.21;;;10.68;72.21
84043;BME280;74129;52.540;13.416;2024-03-02T05:16:23;99884.71;;;10.68;71.97
84043;BME280;74129;52.540;13.416;2024-03-02T05:18:50;99888.69;;;10.70;71.95
84043;BME280;74129;52.540;13.416;2024-03-02T05:21:16;99890.52;;;10.70;72.13
84043;BME280;74129;52.540;13.416;2024-03-02T05:23:42;99892.46;;;10.66;72.11
84043;BME280;74129;52.540;13.416;2024-03-02T05:26:09;99897.09;;;10.62;72.27
84043;BME280;74129;52.540;13.416;2024-03-02T05:28:38;99901.30;;;10.58;72.11
84043;BME280;74129;52.540;13.416;2024-03-02T05:31:05;99903.23;;;10.56;72.41
84043;BME280;74129;52.540;13.416;2024-03-02T05:33:31;99905.77;;;10.54;72.29
84043;BME280;74129;52.540;13.416;2024-03-02T05:35:59;99909.70;;;10.52;72.29
84043;BME280;74129;52.540;13.416;2024-03-02T05:38:25;99910.35;;;10.50;72.55
84043;BME280;74129;52.540;13.416;2024-03-02T05:40:52;99916.86;;;10.50;72.51
84043;BME280;74129;52.540;13.416;2024-03-02T05:43:18;99921.42;;;10.47;72.72
84043;BME280;74129;52.540;13.416;2024-03-02T05:45:46;99921.43;;;10.43;72.69
84043;BME280;74129;52.540;13.416;2024-03-02T05:48:13;99920.09;;;10.40;72.75
84043;BME280;74129;52.540;13.416;2024-03-02T05:50:39;99921.97;;;10.34;73.01
84043;BME280;74129;52.540;13.416;2024-03-02T05:53:06;99925.53;;;10.32;72.88
84043;BME280;74129;52.540;13.416;2024-03-02T05:55:32;99928.64;;;10.31;73.03
84043;BME280;74129;52.540;13.416;2024-03-02T05:57:58;99935.17;;;10.28;73.03
84043;BME280;74129;52.540;13.416;2024-03-02T06:00:24;99936.41;;;10.21;73.17
84043;BME280;74129;52.540;13.416;2024-03-02T06:02:51;99940.38;;;10.16;73.33
84043;BME280;74129;52.540;13.416;2024-03-02T06:05:17;99945.54;;;10.12;73.32
84043;BME280;74129;52.540;13.416;2024-03-02T06:07:45;99940.05;;;10.10;73.09
84043;BME280;74129;52.540;13.416;2024-03-02T06:10:11;99943.92;;;10.07;73.32
84043;BME280;74129;52.540;13.416;2024-03-02T06:12:37;99944.41;;;10.05;73.40
84043;BME280;74129;52.540;13.416;2024-03-02T06:15:04;99943.86;;;10.05;73.27
84043;BME280;74129;52.540;13.416;2024-03-02T06:17:30;99947.68;;;10.05;73.53
84043;BME280;74129;52.540;13.416;2024-03-02T06:19:57;99953.70;;;10.05;73.39
84043;BME280;74129;52.540;13.416;2024-03-02T06:22:23;99952.89;;;10.02;73.55
84043;BME280;74129;52.540;13.416;2024-03-02T06:24:51;99944.73;;;10.02;73.55
84043;BME280;74129;52.540;13.416;2024-03-02T06:27:17;99941.67;;;10.03;73.48
84043;BME280;74129;52.540;13.416;2024-03-02T06:29:44;99938.70;;;10.04;73.48
84043;BME280;74129;52.540;13.416;2024-03-02T06:32:10;99939.95;;;10.04;73.54
84043;BME280;74129;52.540;13.416;2024-03-02T06:34:37;99938.88;;;10.04;73.61
84043;BME280;74129;52.540;13.416;2024-03-02T06:37:03;99944.35;;;10.08;73.37
84043;BME280;74129;52.540;13.416;2024-03-02T06:39:29;99940.21;;;10.09;73.50
84043;BME280;74129;52.540;13.416;2024-03-02T06:41:57;99940.53;;;10.09;73.29
84043;BME280;74129;52.540;13.416;2024-03-02T06:44:23;99940.38;;;10.09;73.08
84043;BME280;74129;52.540;13.416;2024-03-02T06:46:50;99946.88;;;10.08;73.21
84043;BME280;74129;52.540;13.416;2024-03-02T06:49:16;99949.35;;;10.08;73.18
84043;BME280;74129;52.540;13.416;2024-03-02T06:51:44;99950.36;;;10.10;73.13
84043;BME280;74129;52.540;13.416;2024-03-02T06:54:10;99952.41;;;10.11;73.18
84043;BME280;74129;52.540;13.416;2024-03-02T06:56:37;99953.61;;;10.15;73.26
84043;BME280;74129;52.540;13.416;2024-03-02T06:59:04;99955.16;;;10.19;73.01
84043;BME280;74129;52.540;13.416;2024-03-02T07:01:31;99953.55;;;10.22;73.03
84043;BME280;74129;52.540;13.416;2024-03-02T07:03:57;99962.73;;;10.27;72.97
84043;BME280;74129;52.540;13.416;2024-03-02T07:06:23;99960.45;;;10.32;72.92
84043;BME280;74129;52.540;13.416;2024-03-02T07:08:50;99964.66;;;10.37;72.74
84043;BME280;74129;52.540;13.416;2024-03-02T07:11:16;99966.44;;;10.40;72.91
84043;BME280;74129;52.540;13.416;2024-03-02T07:13:42;99971.92;;;10.41;72.76
84043;BME280;74129;52.540;13.416;2024-03-02T07:16:09;99969.33;;;10.43;72.54
84043;BME280;74129;52.540;13.416;2024-03-02T07:18:56;99970.85;;;10.44;72.29
84043;BME280;74129;52.540;13.416;2024-03-02T07:21:22;99968.85;;;10.46;72.45
84043;BME280;74129;52.540;13.416;2024-03-02T07:23:49;99969.61;;;10.46;72.41
84043;BME280;74129;52.540;13.416;2024-03-02T07:26:16;99966.75;;;10.48;72.38
84043;BME280;74129;52.540;13.416;2024-03-02T07:28:48;99967.84;;;10.52;72.36
84043;BME280;74129;52.540;13.416;2024-03-02T07:31:15;99972.45;;;10.55;72.29
84043;BME280;74129;52.540;13.416;2024-03-02T07:33:44;99979.34;;;10.58;72.37
84043;BME280;74129;52.540;13.416;2024-03-02T07:36:10;99982.98;;;10.55;72.20
84043;BME280;74129;52.540;13.416;2024-03-02T07:38:37;99988.10;;;10.57;72.19
84043;BME280;74129;52.540;13.416;2024-03-02T07:41:03;99991.71;;;10.56;71.83
84043;BME280;74129;52.540;13.416;2024-03-02T07:43:30;99996.39;;;10.56;72.10
84043;BME280;74129;52.540;13.416;2024-03-02T07:46:00;100002.84;;;10.57;72.04
84043;BME280;74129;52.540;13.416;2024-03-02T07:48:26;100009.66;;;10.58;72.14
84043;BME280;74129;52.540;13.416;2024-03-02T07:50:53;100015.53;;;10.64;71.99
84043;BME280;74129;52.540;13.416;2024-03-02T07:53:19;100024.35;;;10.66;71.71
84043;BME280;74129;52.540;13.416;2024-03-02T07:55:45;100024.89;;;10.68;71.85
84043;BME280;74129;52.540;13.416;2024-03-02T07:58:12;100030.16;;;10.70;71.80
84043;BME280;74129;52.540;13.416;2024-03-02T08:00:39;100030.48;;;10.71;71.77
84043;BME280;74129;52.540;13.416;2024-03-02T08:03:06;100028.00;;;10.76;71.70
84043;BME280;74129;52.540;13.416;2024-03-02T08:05:33;100031.02;;;10.81;71.90
84043;BME280;74129;52.540;13.416;2024-03-02T08:07:59;100030.21;;;10.84;71.59
84043;BME280;74129;52.540;13.416;2024-03-02T08:10:26;100030.04;;;10.87;71.70
84043;BME280;74129;52.540;13.416;2024-03-02T08:12:52;100034.73;;;10.90;71.66
84043;BME280;74129;52.540;13.416;2024-03-02T08:15:19;100035.26;;;10.96;71.63
84043;BME280;74129;52.540;13.416;2024-03-02T08:17:45;100036.65;;;10.98;71.42
84043;BME280;74129;52.540;13.416;2024-03-02T08:20:14;100038.63;;;11.01;71.40
84043;BME280;74129;52.540;13.416;2024-03-02T08:22:41;100042.50;;;11.02;71.19
84043;BME280;74129;52.540;13.416;2024-03-02T08:25:08;100041.77;;;10.99;71.23
84043;BME280;74129;52.540;13.416;2024-03-02T08:27:34;100043.31;;;10.98;71.27
84043;BME280;74129;52.540;13.416;2024-03-02T08:30:01;100046.81;;;10.98;71.22
84043;BME280;74129;52.540;13.416;2024-03-02T08:32:29;100046.66;;;10.98;71.06
84043;BME280;74129;52.540;13.416;2024-03-02T08:34:56;100052.42;;;10.95;71.24
84043;BME280;74129;52.540;13.416;2024-03-02T08:37:22;100055.50;;;10.94;71.39
84043;BME280;74129;52.540;13.416;2024-03-02T08:39:48;100051.40;;;10.95;71.29
84043;BME280;74129;52.540;13.416;2024-03-02T08:42:16;100055.77;;;10.96;71.51
84043;BME280;74129;52.540;13.416;2024-03-02T08:44:43;100054.35;;;10.98;71.22
84043;BME280;74129;52.540;13.416;2024-03-02T08:47:10;100052.36;;;11.00;71.04
84043;BME280;74129;52.540;13.416;2024-03-02T08:49:36;100052.52;;;11.02;70.87
84043;BME280;74129;52.540;13.416;2024-03-02T08:52:02;100053.33;;;11.02;71.07
84043;BME280;74129;52.540;13.416;2024-03-02T08:54:30;100055.20;;;11.01;70.89
84043;BME280;74129;52.540;13.416;2024-03-02T08:56:56;100057.90;;;11.01;70.68
84043;BME280;74129;52.540;13.416;2024-03-02T08:59:23;100062.69;;;11.01;70.49
84043;BME280;74129;52.540;13.416;2024-03-02T09:01:51;100063.08;;;11.00;70.69
84043;BME280;74129;52.540;13.416;2024-03-02T09:04:18;100063.77;;;11.00;70.60
84043;BME280;74129;52.540;13.416;2024-03-02T09:06:44;100062.74;;;11.00;70.80
84043;BME280;74129;52.540;13.416;2024-03-02T09:09:10;100065.33;;;11.05;70.66
84043;BME280;74129;52.540;13.416;2024-03-02T09:11:37;100072.43;;;11.09;70.82
84043;BME280;74129;52.540;13.416;2024-03-02T09:14:03;100072.86;;;11.11;70.72
84043;BME280;74129;52.540;13.416;2024-03-02T09:16:31;100075.92;;;11.12;70.57
84043;BME280;74129;52.540;13.416;2024-03-02T09:18:58;100077.80;;;11.15;70.71
84043;BME280;74129;52.540;13.416;2024-03-02T09:21:24;100082.54;;;11.16;70.48
84043;BME280;74129;52.540;13.416;2024-03-02T09:23:51;100085.86;;;11.19;70.49
84043;BME280;74129;52.540;13.416;2024-03-02T09:26:18;100086.51;;;11.19;70.39
84043;BME280;74129;52.540;13.416;2024-03-02T09:28:46;100086.95;;;11.21;70.44
84043;BME280;74129;52.540;13.416;2024-03-02T09:31:13;100085.02;;;11.22;70.10
84043;BME280;74129;52.540;13.416;2024-03-02T09:33:39;100084.90;;;11.19;70.23
84043;BME280;74129;52.540;13.416;2024-03-02T09:36:06;100082.21;;;11.18;70.10
84043;BME280;74129;52.540;13.416;2024-03-02T09:38:42;100083.45;;;11.20;70.05
84043;BME280;74129;52.540;13.416;2024-03-02T09:41:08;100085.17;;;11.21;70.06
84043;BME280;74129;52.540;13.416;2024-03-02T09:43:35;100080.11;;;11.23;70.12
84043;BME280;74129;52.540;13.416;2024-03-02T09:46:01;100077.89;;;11.25;70.14
84043;BME280;74129;52.540;13.416;2024-03-02T09:48:27;100084.93;;;11.32;70.25
84043;BME280;74129;52.540;13.416;2024-03-02T09:50:54;100077.86;;;11.40;69.88
84043;BME280;74129;52.540;13.416;2024-03-02T09:53:21;100078.02;;;11.46;69.78
84043;BME280;74129;52.540;13.416;2024-03-02T09:55:48;100075.73;;;11.55;69.86
84043;BME280;74129;52.540;13.416;2024-03-02T09:58:14;100071.60;;;11.65;69.93
84043;BME280;74129;52.540;13.416;2024-03-02T10:00:41;100072.91;;;11.76;69.90
84043;BME280;74129;52.540;13.416;2024-03-02T10:03:12;100075.98;;;11.90;69.45
84043;BME280;74129;52.540;13.416;2024-03-02T10:05:39;100071.61;;;11.97;68.71
84043;BME280;74129;52.540;13.416;2024-03-02T10:08:05;100072.13;;;11.99;68.15
84043;BME280;74129;52.540;13.416;2024-03-02T10:10:37;100074.65;;;12.03;68.39
84043;BME280;74129;52.540;13.416;2024-03-02T10:13:11;100080.64;;;12.13;68.46
84043;BME280;74129;52.540;13.416;2024-03-02T10:15:40;100085.55;;;12.23;68.32
84043;BME280;74129;52.540;13.416;2024-03-02T10:18:10;100084.36;;;12.33;68.03
84043;BME280;74129;52.540;13.416;2024-03-02T10:20:42;100082.63;;;12.41;67.83
84043;BME280;74129;52.540;13.416;2024-03-02T10:23:13;100083.31;;;12.52;67.72
84043;BME280;74129;52.540;13.416;2024-03-02T10:25:40;100079.89;;;12.63;67.68
84043;BME280;74129;52.540;13.416;2024-03-02T10:28:07;100079.31;;;12.75;67.34
84043;BME280;74129;52.540;13.416;2024-03-02T10:30:34;100075.13;;;12.87;67.22
84043;BME280;74129;52.540;13.416;2024-03-02T10:33:05;100074.31;;;12.99;66.91
84043;BME280;74129;52.540;13.416;2024-03-02T10:35:32;100073.75;;;13.08;66.64
84043;BME280;74129;52.540;13.416;2024-03-02T10:38:04;100073.65;;;13.13;66.19
84043;BME280;74129;52.540;13.416;2024-03-02T10:40:31;100075.55;;;13.17;65.85
84043;BME280;74129;52.540;13.416;2024-03-02T10:42:59;100075.61;;;13.21;65.68
84043;BME280;74129;52.540;13.416;2024-03-02T10:45:28;100075.02;;;13.26;65.40
84043;BME280;74129;52.540;13.416;2024-03-02T10:47:54;100072.57;;;13.29;64.77
84043;BME280;74129;52.540;13.416;2024-03-02T10:50:21;100073.81;;;13.32;64.85
84043;BME280;74129;52.540;13.416;2024-03-02T10:52:47;100072.22;;;13.34;64.46
84043;BME280;74129;52.540;13.416;2024-03-02T10:55:14;100070.82;;;13.39;64.54
84043;BME280;74129;52.540;13.416;2024-03-02T10:57:49;100071.34;;;13.47;64.28
84043;BME280;74129;52.540;13.416;2024-03-02T11:00:18;100072.87;;;13.55;64.27
84043;BME280;74129;52.540;13.416;2024-03-02T11:02:58;100069.67;;;13.60;64.16
84043;BME280;74129;52.540;13.416;2024-03-02T11:05:34;100064.70;;;13.65;63.53
84043;BME280;74129;52.540;13.416;2024-03-02T11:08:06;100066.86;;;13.65;63.43
84043;BME280;74129;52.540;13.416;2024-03-02T11:10:35;100068.61;;;13.65;63.04
84043;BME280;74129;52.540;13.416;2024-03-02T11:13:05;100064.52;;;13.66;63.32
84043;BME280;74129;52.540;13.416;2024-03-02T11:15:35;100062.48;;;13.71;63.12
84043;BME280;74129;52.540;13.416;2024-03-02T11:18:06;100068.44;;;13.78;62.87
84043;BME280;74129;52.540;13.416;2024-03-02T11:20:37;100066.75;;;13.84;62.47
84043;BME280;74129;52.540;13.416;2024-03-02T11:23:08;100064.80;;;13.92;62.19
84043;BME280;74129;52.540;13.416;2024-03-02T11:25:36;100059.11;;;13.98;61.83
84043;BME280;74129;52.540;13.416;2024-03-02T11:28:04;100059.07;;;14.00;61.77
84043;BME280;74129;52.540;13.416;2024-03-02T11:32:58;100062.04;;;14.06;61.72
84043;BME280;74129;52.540;13.416;2024-03-02T11:35:26;100065.83;;;14.13;61.56
84043;BME280;74129;52.540;13.416;2024-03-02T11:37:52;100069.40;;;14.17;61.23
84043;BME280;74129;52.540;13.416;2024-03-02T11:40:22;100069.55;;;14.22;61.05
84043;BME280;74129;52.540;13.416;2024-03-02T11:42:49;100071.11;;;14.27;61.15
84043;BME280;74129;52.540;13.416;2024-03-02T11:45:22;100063.31;;;14.31;60.94
84043;BME280;74129;52.540;13.416;2024-03-02T11:47:58;100062.59;;;14.35;60.91
84043;BME280;74129;52.540;13.416;2024-03-02T11:50:40;100061.91;;;14.41;60.51
84043;BME280;74129;52.540;13.416;2024-03-02T11:53:09;100063.77;;;14.50;60.48
84043;BME280;74129;52.540;13.416;2024-03-02T11:55:36;100065.30;;;14.58;59.87
84043;BME280;74129;52.540;13.416;2024-03-02T11:58:04;100068.61;;;14.58;59.81
84043;BME280;74129;52.540;13.416;2024-03-02T12:00:30;100073.42;;;14.59;59.73
84043;BME280;74129;52.540;13.416;2024-03-02T12:03:15;100071.41;;;14.63;59.43
84043;BME280;74129;52.540;13.416;2024-03-02T12:05:42;100074.89;;;14.69;59.51
84043;BME280;74129;52.540;13.416;2024-03-02T12:08:08;100070.86;;;14.74;58.92
84043;BME280;74129;52.540;13.416;2024-03-02T12:10:36;100069.20;;;14.76;58.49
84043;BME280;74129;52.540;13.416;2024-03-02T12:13:07;100066.39;;;14.79;57.87
84043;BME280;74129;52.540;13.416;2024-03-02T12:15:35;100066.39;;;14.82;58.08
84043;BME280;74129;52.540;13.416;2024-03-02T12:18:03;100065.11;;;14.91;57.99
84043;BME280;74129;52.540;13.416;2024-03-02T12:20:31;100059.84;;;14.98;57.63
84043;BME280;74129;52.540;13.416;2024-03-02T12:22:59;100055.56;;;15.07;57.43
84043;BME280;74129;52.540;13.416;2024-03-02T12:25:29;100058.40;;;15.22;57.89
84043;BME280;74129;52.540;13.416;2024-03-02T12:28:00;100052.06;;;15.39;57.31
84043;BME280;74129;52.540;13.416;2024-03-02T12:30:31;100047.23;;;15.50;56.79
84043;BME280;74129;52.540;13.416;2024-03-02T12:33:01;100045.59;;;15.57;56.23
84043;BME280;74129;52.540;13.416;2024-03-02T12:35:28;100044.51;;;15.60;56.22
84043;BME280;74129;52.540;13.416;2024-03-02T12:37:54;100045.66;;;15.67;56.43
84043;BME280;74129;52.540;13.416;2024-03-02T12:40:21;100043.25;;;15.80;56.09
84043;BME280;74129;52.540;13.416;2024-03-02T12:42:49;100041.77;;;15.94;55.52
84043;BME280;74129;52.540;13.416;2024-03-02T12:45:16;100039.61;;;16.03;54.88
84043;BME280;74129;52.540;13.416;2024-03-02T12:47:50;100040.11;;;16.08;54.52
84043;BME280;74129;52.540;13.416;2024-03-02T12:50:17;100039.71;;;16.15;54.03
84043;BME280;74129;52.540;13.416;2024-03-02T12:52:51;100039.80;;;16.17;54.01